Frem Nordica — OVIL2 — position and weather

sailwx.info

Track history (hours):
 
Tides and Currents Weather Stations Pressure Air Temp Water Temp Dewpoint Dewpoint Depression Visibility Wind Speed Wind Dir Waves Ship Positions

Frem Nordica

Last reported at 2014-Dec-16 14:07 UTC. Time now 2014-Dec-18 15:27 UTC.
Position N 55°35' E 015°18'.

Length 79 m; draft 3.6 m.

MMSI: 220439000.

Date/timePositionNaut miles runAvg speedWind from/ knotsBaromVisibWave heightAir tempDewpointWater temp
2014-Dec-16 14:07N 55°35' E 015°18'6 8.5
2014-Dec-16 13:27N 55°32' E 015°09'8 8.5
2014-Dec-16 12:33N 55°29' E 014°57'9 8.8
2014-Dec-16 11:33N 55°24' E 014°43'9 9.0
2014-Dec-16 10:33N 55°18' E 014°33'9 8.8
2014-Dec-16 09:33N 55°11' E 014°22'8 7.8
2014-Dec-16 08:33N 55°11' E 014°08'8 8.1
2014-Dec-16 07:33N 55°10' E 013°54'33 8.0
2014-Dec-16 03:23N 55°15' E 012°56'7 8.0
2014-Dec-16 02:30N 55°17' E 012°44'6 6.3
2014-Dec-16 01:29N 55°22' E 012°39'7 7.1
2014-Dec-16 00:32N 55°29' E 012°41'9 8.8
2014-Dec-15 23:33N 55°37' E 012°42'9 9.2
2014-Dec-15 22:33N 55°47' E 012°41'9 8.8
2014-Dec-15 21:33N 55°55' E 012°38'6 5.4
2014-Dec-15 20:30N 56°00' E 012°43'0 0.0
2014-Dec-15 19:33N 56°00' E 012°43'0 0.0
2014-Dec-15 18:33N 56°00' E 012°43'0 0.0
2014-Dec-15 17:30N 56°00' E 012°43'0 0.0
2014-Dec-15 16:33N 56°00' E 012°43'0 0.0
2014-Dec-15 15:33N 56°00' E 012°43'0 0.0
2014-Dec-15 14:33N 56°00' E 012°43'0 0.0
2014-Dec-15 13:33N 56°00' E 012°43'0 0.0
2014-Dec-15 12:30N 56°00' E 012°43'0 0.0
2014-Dec-15 11:33N 56°00' E 012°43'0 0.0
2014-Dec-15 10:30N 56°00' E 012°43'0 0.0
2014-Dec-15 09:33N 56°00' E 012°43'0 0.0
2014-Dec-15 08:33N 56°00' E 012°43'0 0.0
2014-Dec-15 07:33N 56°00' E 012°43'0 0.0
2014-Dec-15 06:33N 56°00' E 012°43'0 0.0
2014-Dec-15 05:33N 56°00' E 012°43'0 0.0
2014-Dec-15 04:33N 56°00' E 012°43'0 0.0
2014-Dec-15 03:33N 56°00' E 012°43'0 0.0
2014-Dec-15 02:33N 56°00' E 012°43'0 0.0
2014-Dec-15 01:33N 56°00' E 012°43'0 0.0
2014-Dec-15 00:33N 56°00' E 012°43'0 0.0
2014-Dec-14 23:33N 56°00' E 012°43'0 0.0
2014-Dec-14 22:33N 56°00' E 012°43'0 0.0
2014-Dec-14 21:33N 56°00' E 012°43'0 0.0
2014-Dec-14 20:33N 56°00' E 012°43'0 0.0
2014-Dec-14 19:33N 56°00' E 012°43'0 0.0
2014-Dec-14 18:33N 56°00' E 012°43'0 0.0
2014-Dec-14 17:33N 56°00' E 012°43'0 0.0
2014-Dec-14 16:33N 56°00' E 012°43'0 0.0
2014-Dec-14 15:33N 56°00' E 012°43'0 0.0
2014-Dec-14 14:33N 56°00' E 012°43'0 0.0
2014-Dec-14 13:33N 56°00' E 012°43'0 0.0
2014-Dec-14 12:33N 56°00' E 012°43'0 0.0
2014-Dec-14 11:33N 56°00' E 012°43'0 0.0
2014-Dec-14 10:33N 56°00' E 012°43'0 0.0
2014-Dec-14 09:33N 56°00' E 012°43'0 0.0
2014-Dec-14 08:33N 56°00' E 012°43'0 0.0
2014-Dec-14 07:33N 56°00' E 012°43'0 0.0
2014-Dec-14 06:33N 56°00' E 012°43'0 0.0
2014-Dec-14 05:33N 56°00' E 012°43'0 0.0
2014-Dec-14 04:33N 56°00' E 012°43'0 0.0
2014-Dec-14 03:33N 56°00' E 012°43'0 0.0
2014-Dec-14 02:33N 56°00' E 012°43'0 0.0
2014-Dec-14 01:33N 56°00' E 012°43'0 0.0
2014-Dec-14 00:33N 56°00' E 012°43'0 0.0
2014-Dec-13 23:33N 56°00' E 012°43'0 0.0
2014-Dec-13 22:33N 56°00' E 012°43'0 0.0
2014-Dec-13 21:33N 56°00' E 012°43'0 0.0
2014-Dec-13 20:33N 56°00' E 012°43'0 0.0
2014-Dec-13 19:33N 56°00' E 012°43'0 0.0
2014-Dec-13 18:33N 56°00' E 012°43'0 0.0
2014-Dec-13 17:33N 56°00' E 012°43'0 0.0
2014-Dec-13 16:33N 56°00' E 012°43'0 0.0
2014-Dec-13 15:33N 56°00' E 012°43'0 0.0
2014-Dec-13 14:33N 56°00' E 012°43'0 0.0
2014-Dec-13 13:30N 56°00' E 012°43'0 0.0
2014-Dec-13 12:33N 56°00' E 012°43'0 0.0
2014-Dec-13 11:33N 56°00' E 012°43'0 0.0
2014-Dec-13 10:33N 56°00' E 012°43'0 0.0
2014-Dec-13 09:33N 56°00' E 012°43'0 0.0
2014-Dec-13 08:33N 56°00' E 012°43'0 0.0
2014-Dec-13 07:33N 56°00' E 012°43'0 0.0
2014-Dec-13 06:30N 56°00' E 012°43'0 0.0
2014-Dec-13 05:30N 56°00' E 012°43'0 0.0
2014-Dec-13 04:33N 56°00' E 012°43'0 0.0
2014-Dec-13 03:30N 56°00' E 012°43'0 0.0
2014-Dec-13 02:33N 56°00' E 012°43'0 0.0
2014-Dec-13 01:33N 56°00' E 012°43'0 0.0
2014-Dec-13 00:33N 56°00' E 012°43'0 0.0
2014-Dec-12 23:33N 56°00' E 012°43'0 0.0
2014-Dec-12 22:33N 56°00' E 012°43'0 0.0
2014-Dec-12 21:33N 56°00' E 012°43'0 0.0
2014-Dec-12 20:33N 56°00' E 012°43'0 0.0
2014-Dec-12 19:33N 56°00' E 012°43'0 0.0
2014-Dec-12 18:33N 56°00' E 012°43'0 0.0
2014-Dec-12 17:33N 56°00' E 012°43'0 0.0
2014-Dec-12 16:33N 56°00' E 012°43'0 0.0
2014-Dec-12 15:30N 56°00' E 012°43'0 0.0
2014-Dec-12 14:33N 56°00' E 012°43'0 0.0
2014-Dec-12 13:33N 56°00' E 012°43'0 0.0
2014-Dec-12 12:33N 56°00' E 012°43'0 0.0
2014-Dec-12 11:33N 56°00' E 012°43'0 0.0
2014-Dec-12 10:33N 56°00' E 012°43'0 0.0
2014-Dec-12 09:33N 56°00' E 012°43'0 0.0
2014-Dec-12 08:33N 56°00' E 012°43'0 0.0
2014-Dec-12 07:33N 56°00' E 012°43'0 0.0
2014-Dec-12 06:29N 56°00' E 012°43'0 0.0
2014-Dec-12 05:30N 56°00' E 012°43'0 0.0
2014-Dec-12 04:33N 56°00' E 012°43'0 0.0
2014-Dec-12 03:33N 56°00' E 012°43'0 0.0
2014-Dec-12 02:33N 56°00' E 012°43'0 0.0
2014-Dec-12 01:32N 56°00' E 012°43'0 0.0
2014-Dec-12 00:33N 56°00' E 012°43'0 0.0
2014-Dec-11 23:32N 56°00' E 012°43'0 0.0
2014-Dec-11 22:33N 56°00' E 012°43'0 0.0
2014-Dec-11 21:33N 56°00' E 012°43'0 0.0
2014-Dec-11 20:33N 56°00' E 012°43'0 0.0
2014-Dec-11 19:32N 56°00' E 012°43'0 0.0
2014-Dec-11 18:33N 56°00' E 012°43'0 0.0
2014-Dec-11 17:33N 56°00' E 012°43'2 1.8
2014-Dec-11 16:33N 55°59' E 012°41'9 9.2
2014-Dec-11 15:33N 56°07' E 012°32'9 9.5
2014-Dec-11 14:33N 56°11' E 012°16'9 8.5
2014-Dec-11 13:33N 56°10' E 012°01'3 0.1
2014-Dec-09 19:16N 56°14' E 012°00'6 8.2
2014-Dec-09 18:33N 56°13' E 012°10'8 8.0
2014-Dec-09 17:34N 56°11' E 012°24'8 8.0
2014-Dec-09 16:34N 56°06' E 012°35'7 7.5
2014-Dec-09 15:34N 55°59' E 012°42'7 7.1
2014-Dec-09 14:34N 55°52' E 012°44'8 7.8
2014-Dec-09 13:34N 55°45' E 012°41'8 7.5
2014-Dec-09 12:34N 55°37' E 012°42'7 6.8
2014-Dec-09 11:34N 55°30' E 012°40'8 8.1
2014-Dec-09 10:34N 55°23' E 012°35'8 8.3
2014-Dec-09 09:34N 55°15' E 012°29'  
Track history (hours):
 
Tides and Currents Weather Stations Pressure Air Temp Water Temp Dewpoint Dewpoint Depression Visibility Wind Speed Wind Dir Waves Ship Positions

Frem Nordica

Last reported at 2014-Dec-16 14:07 UTC. Time now 2014-Dec-18 15:27 UTC.
Position N 55°35' E 015°18'.

Length 79 m; draft 3.6 m.

MMSI: 220439000.

Date/timePositionNaut miles runAvg speedWind from/ knotsBaromVisibWave heightAir tempDewpointWater temp
2014-Dec-16 14:07N 55°35' E 015°18'6 8.5
2014-Dec-16 13:27N 55°32' E 015°09'8 8.5
2014-Dec-16 12:33N 55°29' E 014°57'9 8.8
2014-Dec-16 11:33N 55°24' E 014°43'9 9.0
2014-Dec-16 10:33N 55°18' E 014°33'9 8.8
2014-Dec-16 09:33N 55°11' E 014°22'8 7.8
2014-Dec-16 08:33N 55°11' E 014°08'8 8.1
2014-Dec-16 07:33N 55°10' E 013°54'33 8.0
2014-Dec-16 03:23N 55°15' E 012°56'7 8.0
2014-Dec-16 02:30N 55°17' E 012°44'6 6.3
2014-Dec-16 01:29N 55°22' E 012°39'7 7.1
2014-Dec-16 00:32N 55°29' E 012°41'9 8.8
2014-Dec-15 23:33N 55°37' E 012°42'9 9.2
2014-Dec-15 22:33N 55°47' E 012°41'9 8.8
2014-Dec-15 21:33N 55°55' E 012°38'6 5.4
2014-Dec-15 20:30N 56°00' E 012°43'0 0.0
2014-Dec-15 19:33N 56°00' E 012°43'0 0.0
2014-Dec-15 18:33N 56°00' E 012°43'0 0.0
2014-Dec-15 17:30N 56°00' E 012°43'0 0.0
2014-Dec-15 16:33N 56°00' E 012°43'0 0.0
2014-Dec-15 15:33N 56°00' E 012°43'0 0.0
2014-Dec-15 14:33N 56°00' E 012°43'0 0.0
2014-Dec-15 13:33N 56°00' E 012°43'0 0.0
2014-Dec-15 12:30N 56°00' E 012°43'0 0.0
2014-Dec-15 11:33N 56°00' E 012°43'0 0.0
2014-Dec-15 10:30N 56°00' E 012°43'0 0.0
2014-Dec-15 09:33N 56°00' E 012°43'0 0.0
2014-Dec-15 08:33N 56°00' E 012°43'0 0.0
2014-Dec-15 07:33N 56°00' E 012°43'0 0.0
2014-Dec-15 06:33N 56°00' E 012°43'0 0.0
2014-Dec-15 05:33N 56°00' E 012°43'0 0.0
2014-Dec-15 04:33N 56°00' E 012°43'0 0.0
2014-Dec-15 03:33N 56°00' E 012°43'0 0.0
2014-Dec-15 02:33N 56°00' E 012°43'0 0.0
2014-Dec-15 01:33N 56°00' E 012°43'0 0.0
2014-Dec-15 00:33N 56°00' E 012°43'0 0.0
2014-Dec-14 23:33N 56°00' E 012°43'0 0.0
2014-Dec-14 22:33N 56°00' E 012°43'0 0.0
2014-Dec-14 21:33N 56°00' E 012°43'0 0.0
2014-Dec-14 20:33N 56°00' E 012°43'0 0.0
2014-Dec-14 19:33N 56°00' E 012°43'0 0.0
2014-Dec-14 18:33N 56°00' E 012°43'0 0.0
2014-Dec-14 17:33N 56°00' E 012°43'0 0.0
2014-Dec-14 16:33N 56°00' E 012°43'0 0.0
2014-Dec-14 15:33N 56°00' E 012°43'0 0.0
2014-Dec-14 14:33N 56°00' E 012°43'0 0.0
2014-Dec-14 13:33N 56°00' E 012°43'0 0.0
2014-Dec-14 12:33N 56°00' E 012°43'0 0.0
2014-Dec-14 11:33N 56°00' E 012°43'0 0.0
2014-Dec-14 10:33N 56°00' E 012°43'0 0.0
2014-Dec-14 09:33N 56°00' E 012°43'0 0.0
2014-Dec-14 08:33N 56°00' E 012°43'0 0.0
2014-Dec-14 07:33N 56°00' E 012°43'0 0.0
2014-Dec-14 06:33N 56°00' E 012°43'0 0.0
2014-Dec-14 05:33N 56°00' E 012°43'0 0.0
2014-Dec-14 04:33N 56°00' E 012°43'0 0.0
2014-Dec-14 03:33N 56°00' E 012°43'0 0.0
2014-Dec-14 02:33N 56°00' E 012°43'0 0.0
2014-Dec-14 01:33N 56°00' E 012°43'0 0.0
2014-Dec-14 00:33N 56°00' E 012°43'0 0.0
2014-Dec-13 23:33N 56°00' E 012°43'0 0.0
2014-Dec-13 22:33N 56°00' E 012°43'0 0.0
2014-Dec-13 21:33N 56°00' E 012°43'0 0.0
2014-Dec-13 20:33N 56°00' E 012°43'0 0.0
2014-Dec-13 19:33N 56°00' E 012°43'0 0.0
2014-Dec-13 18:33N 56°00' E 012°43'0 0.0
2014-Dec-13 17:33N 56°00' E 012°43'0 0.0
2014-Dec-13 16:33N 56°00' E 012°43'0 0.0
2014-Dec-13 15:33N 56°00' E 012°43'0 0.0
2014-Dec-13 14:33N 56°00' E 012°43'0 0.0
2014-Dec-13 13:30N 56°00' E 012°43'0 0.0
2014-Dec-13 12:33N 56°00' E 012°43'0 0.0
2014-Dec-13 11:33N 56°00' E 012°43'0 0.0
2014-Dec-13 10:33N 56°00' E 012°43'0 0.0
2014-Dec-13 09:33N 56°00' E 012°43'0 0.0
2014-Dec-13 08:33N 56°00' E 012°43'0 0.0
2014-Dec-13 07:33N 56°00' E 012°43'0 0.0
2014-Dec-13 06:30N 56°00' E 012°43'0 0.0
2014-Dec-13 05:30N 56°00' E 012°43'0 0.0
2014-Dec-13 04:33N 56°00' E 012°43'0 0.0
2014-Dec-13 03:30N 56°00' E 012°43'0 0.0
2014-Dec-13 02:33N 56°00' E 012°43'0 0.0
2014-Dec-13 01:33N 56°00' E 012°43'0 0.0
2014-Dec-13 00:33N 56°00' E 012°43'0 0.0
2014-Dec-12 23:33N 56°00' E 012°43'0 0.0
2014-Dec-12 22:33N 56°00' E 012°43'0 0.0
2014-Dec-12 21:33N 56°00' E 012°43'0 0.0
2014-Dec-12 20:33N 56°00' E 012°43'0 0.0
2014-Dec-12 19:33N 56°00' E 012°43'0 0.0
2014-Dec-12 18:33N 56°00' E 012°43'0 0.0
2014-Dec-12 17:33N 56°00' E 012°43'0 0.0
2014-Dec-12 16:33N 56°00' E 012°43'0 0.0
2014-Dec-12 15:30N 56°00' E 012°43'0 0.0
2014-Dec-12 14:33N 56°00' E 012°43'0 0.0
2014-Dec-12 13:33N 56°00' E 012°43'0 0.0
2014-Dec-12 12:33N 56°00' E 012°43'0 0.0
2014-Dec-12 11:33N 56°00' E 012°43'0 0.0
2014-Dec-12 10:33N 56°00' E 012°43'0 0.0
2014-Dec-12 09:33N 56°00' E 012°43'0 0.0
2014-Dec-12 08:33N 56°00' E 012°43'0 0.0
2014-Dec-12 07:33N 56°00' E 012°43'0 0.0
2014-Dec-12 06:29N 56°00' E 012°43'0 0.0
2014-Dec-12 05:30N 56°00' E 012°43'0 0.0
2014-Dec-12 04:33N 56°00' E 012°43'0 0.0
2014-Dec-12 03:33N 56°00' E 012°43'0 0.0
2014-Dec-12 02:33N 56°00' E 012°43'0 0.0
2014-Dec-12 01:32N 56°00' E 012°43'0 0.0
2014-Dec-12 00:33N 56°00' E 012°43'0 0.0
2014-Dec-11 23:32N 56°00' E 012°43'0 0.0
2014-Dec-11 22:33N 56°00' E 012°43'0 0.0
2014-Dec-11 21:33N 56°00' E 012°43'0 0.0
2014-Dec-11 20:33N 56°00' E 012°43'0 0.0
2014-Dec-11 19:32N 56°00' E 012°43'0 0.0
2014-Dec-11 18:33N 56°00' E 012°43'0 0.0
2014-Dec-11 17:33N 56°00' E 012°43'2 1.8
2014-Dec-11 16:33N 55°59' E 012°41'9 9.2
2014-Dec-11 15:33N 56°07' E 012°32'9 9.5
2014-Dec-11 14:33N 56°11' E 012°16'9 8.5
2014-Dec-11 13:33N 56°10' E 012°01'3 0.1
2014-Dec-09 19:16N 56°14' E 012°00'6 8.2
2014-Dec-09 18:33N 56°13' E 012°10'8 8.0
2014-Dec-09 17:34N 56°11' E 012°24'8 8.0
2014-Dec-09 16:34N 56°06' E 012°35'7 7.5
2014-Dec-09 15:34N 55°59' E 012°42'7 7.1
2014-Dec-09 14:34N 55°52' E 012°44'8 7.8
2014-Dec-09 13:34N 55°45' E 012°41'8 7.5
2014-Dec-09 12:34N 55°37' E 012°42'7 6.8
2014-Dec-09 11:34N 55°30' E 012°40'8 8.1
2014-Dec-09 10:34N 55°23' E 012°35'8 8.3
2014-Dec-09 09:34N 55°15' E 012°29'  

Dump ship's entire track history